Quito, Ecuador

11:32 PM ECT on September 04, 2015 (GMT -0500)
Yanahuaico | | Change Station
CLOSE
Current Station
Personal Weather Station
Location: Quito, PICHINCHA
Elevation: 8504 ft
Nearby Weather Stations

Elev 8504 ft 0.36 °S, 78.50 °W | Updated 1 minute ago

Clear
Clear
55.3 °F
Feels Like 55.3 °F
N
4.0
Wind Variable Wind from WSW
Gusts 4.0 mph

Today
High -- | Low -- °F
--% Chance of Precip.
Yesterday
High -- | Low -- °F
Precip. -- in
6:09 AM 6:16 PM
Waning Gibbous, 52% visible
Pressure 30.48 in
Visibility 6.2 miles
Clouds
Dew Point 42 °F
Humidity 60%
Rainfall in
Snow Depth Not available.
UV Not available.
Pollen Not available.
Air Quality Not available.
Flu Activity Not available.
METAR SELT 050400Z 09002KT 9999 CAVOK 06/06 Q1032
Pressure 30.48 in
Visibility 6.2 miles
Clouds
Dew Point 42 °F
Humidity 60%
Rainfall in
Snow Depth Not available.
UV Not available.
Pollen Not available.
Air Quality Not available.
Flu Activity Not available.
METAR SELT 050400Z 09002KT 9999 CAVOK 06/06 Q1032

10-Day Weather Forecast

×

Almanac

Astronomy

Sep. 04, 2015 Rise Set
Actual Time
Civil Twilight
Nautical Twilight
Astronomical Twilight
Moon
Length of Visible Light
Length of Day
Tomorrow will be .
, % of the Moon is Illuminated

Today's Extremes

Country Highs Country Lows

Community

WunderPhotos

Upload Photos

1,852,425 photos uploaded!

WunderBlogs® & News

Nearby

Air Quality

  Air Quality AQ Index Pollutant
Not available.

Snow Depth

Station Depth Elevation

Earthquake Activity

City Distance Mag. Time & Date
Minimum magnitude displayed is 2.5.

Coastal Water Temperatures

Place Temperature

Stations

Nearby Weather Stations

Station Location Temp. Windchill Dew Point Humidity Wind Precip. Elev Updated Type